Time;durP1;ratioP1;P1;durP2;ratioP2;P2;SDS_P1;SDS_P2;PMS_P1;PMS_P2;Temp;Humidity;BMP_temperature;BMP_pressure;BME280_temperature;BME280_humidity;BME280_pressure;Samples;Min_cycle;Max_cycle;Signal;HPM_P1;HPM_P2
2023/08/20 04:02:39;;;;;;;0.70;0.10;;;24.20;99.90;;;;;;4878582;29;20493;-71
2023/08/20 04:05:07;;;;;;;0.70;0.10;;;24.20;99.90;;;;;;4879746;29;20450;-71
2023/08/20 04:07:36;;;;;;;0.60;0.10;;;24.10;99.90;;;;;;4879463;29;20498;-71
2023/08/20 04:10:05;;;;;;;0.70;0.10;;;24.10;99.90;;;;;;4880223;29;20970;-71
2023/08/20 04:12:33;;;;;;;0.70;0.10;;;24.10;99.90;;;;;;4880061;29;20529;-72
2023/08/20 04:15:01;;;;;;;2.37;0.77;;;;;;;;;;4933374;23;20492;-72
2023/08/20 04:17:29;;;;;;;0.60;0.10;;;24.00;99.90;;;;;;4898632;29;20476;-72
2023/08/20 04:19:58;;;;;;;1.27;0.50;;;24.00;99.90;;;;;;4898422;29;20785;-73
2023/08/20 04:22:28;;;;;;;0.60;0.20;;;24.00;99.90;;;;;;4898366;29;20452;-73
2023/08/20 04:24:56;;;;;;;0.70;0.17;;;23.90;99.90;;;;;;4897782;29;20465;-74
2023/08/20 04:27:24;;;;;;;0.70;0.50;;;23.90;99.90;;;;;;4898199;29;20451;-73
2023/08/20 04:29:52;;;;;;;0.67;0.10;;;23.90;99.90;;;;;;4898525;29;20559;-72
2023/08/20 04:32:20;;;;;;;0.70;0.20;;;23.90;99.90;;;;;;4898835;29;20446;-72
2023/08/20 04:34:51;;;;;;;0.70;0.30;;;;;;;;;;4898412;29;20493;-73
2023/08/20 04:37:21;;;;;;;0.70;0.40;;;23.90;99.90;;;;;;4898446;29;20532;-72
2023/08/20 04:39:49;;;;;;;0.60;0.10;;;23.80;99.90;;;;;;4898755;29;20552;-71
2023/08/20 04:42:17;;;;;;;0.70;0.20;;;23.80;99.90;;;;;;4898523;29;20453;-73
2023/08/20 04:44:44;;;;;;;0.70;0.30;;;23.70;99.90;;;;;;4898250;29;20497;-73
2023/08/20 04:47:13;;;;;;;0.60;0.10;;;;;;;;;;4898133;29;20453;-71
2023/08/20 04:49:41;;;;;;;0.70;0.20;;;23.70;99.90;;;;;;4898227;29;20543;-72
2023/08/20 04:52:08;;;;;;;0.70;0.40;;;23.70;99.90;;;;;;4897857;29;20453;-73
2023/08/20 04:54:38;;;;;;;0.70;0.30;;;23.70;99.90;;;;;;4898331;29;21005;-73
2023/08/20 04:57:06;;;;;;;0.70;0.30;;;;;;;;;;4903936;29;20480;-74
2023/08/20 04:59:34;;;;;;;0.60;0.13;;;;;;;;;;4917013;29;20452;-73
2023/08/20 05:02:02;;;;;;;0.60;0.20;;;23.80;99.90;;;;;;4916724;29;20810;-72
2023/08/20 05:04:30;;;;;;;0.70;0.20;;;;;;;;;;4907008;29;20461;-74
2023/08/20 05:06:58;;;;;;;0.60;0.20;;;;;;;;;;4894379;29;20476;-73
2023/08/20 05:09:27;;;;;;;0.60;0.10;;;;;;;;;;4897940;29;20947;-72
2023/08/20 05:11:56;;;;;;;1.23;1.13;;;23.80;99.90;;;;;;4897942;29;20552;-73
2023/08/20 05:14:24;;;;;;;0.60;0.10;;;23.80;99.90;;;;;;4897732;29;21019;-72
2023/08/20 05:16:51;;;;;;;22.37;4.40;;;23.80;99.90;;;;;;4897981;29;20457;-73
2023/08/20 05:19:19;;;;;;;1.33;1.23;;;23.90;99.90;;;;;;4897931;29;20453;-72
2023/08/20 05:21:47;;;;;;;0.60;0.20;;;23.90;99.90;;;;;;4898391;29;20540;-72
2023/08/20 05:24:15;;;;;;;1.57;0.50;;;23.90;99.90;;;;;;4898085;29;20532;-73
2023/08/20 05:26:43;;;;;;;0.70;0.30;;;;;;;;;;4897333;29;20453;-73
2023/08/20 05:29:12;;;;;;;0.80;0.63;;;23.70;99.90;;;;;;4897692;29;20453;-72
2023/08/20 05:31:40;;;;;;;0.60;0.10;;;23.70;99.90;;;;;;4897547;29;20942;-72
2023/08/20 05:34:08;;;;;;;0.80;0.57;;;23.80;99.90;;;;;;4897704;29;20523;-72
2023/08/20 05:36:36;;;;;;;0.60;0.20;;;23.80;99.90;;;;;;4898208;29;20458;-72
2023/08/20 05:39:04;;;;;;;0.60;0.10;;;23.90;99.90;;;;;;4898641;29;20459;-72
2023/08/20 05:41:32;;;;;;;0.70;0.40;;;23.90;99.90;;;;;;4898245;29;20491;-73
2023/08/20 05:44:00;;;;;;;0.70;0.23;;;;;;;;;;4887289;29;20947;-74
2023/08/20 05:46:29;;;;;;;0.60;0.10;;;23.90;99.90;;;;;;4878036;29;20549;-72
2023/08/20 05:48:58;;;;;;;0.70;0.30;;;;;;;;;;4879098;29;20906;-72
2023/08/20 05:51:26;;;;;;;1.30;1.20;;;24.00;99.90;;;;;;4891031;29;20457;-72
2023/08/20 05:53:54;;;;;;;0.70;0.30;;;;;;;;;;4897424;29;20492;-72
2023/08/20 05:56:22;;;;;;;0.60;0.10;;;24.00;99.90;;;;;;4896856;29;20469;-72
2023/08/20 05:58:51;;;;;;;0.70;0.10;;;;;;;;;;4897163;29;20457;-72
2023/08/20 06:01:19;;;;;;;0.70;0.20;;;24.00;99.90;;;;;;4896381;29;20969;-72
2023/08/20 06:03:48;;;;;;;0.70;0.50;;;21.50;99.90;;;;;;4897127;29;20472;-71
2023/08/20 06:06:16;;;;;;;0.63;0.10;;;;;;;;;;4896792;29;20465;-72
2023/08/20 06:08:44;;;;;;;0.60;0.10;;;;;;;;;;4896911;29;20485;-73
2023/08/20 06:11:32;;;;;;;1.00;0.73;;;;;;;;;;4898681;29;20516;-71
2023/08/20 06:14:01;;;;;;;0.60;0.20;;;;;;;;;;4898128;29;20489;-73
2023/08/20 06:16:29;;;;;;;0.60;0.10;;;;;;;;;;4898030;29;20481;-71
2023/08/20 06:18:58;;;;;;;0.60;0.10;;;24.10;99.90;;;;;;4900747;29;20521;-71
2023/08/20 06:21:30;;;;;;;1.33;0.47;;;24.10;99.90;;;;;;4899130;29;20453;-72
2023/08/20 06:23:58;;;;;;;0.60;0.20;;;;;;;;;;4897972;29;20457;-71
2023/08/20 06:26:26;;;;;;;1.47;0.83;;;24.20;99.90;;;;;;4897635;29;20448;-72
2023/08/20 06:28:53;;;;;;;0.60;0.20;;;24.20;99.90;;;;;;4896747;29;20489;-72
2023/08/20 06:31:21;;;;;;;0.70;0.30;;;24.30;99.90;;;;;;4896819;29;20489;-72
2023/08/20 06:33:49;;;;;;;0.70;0.20;;;24.40;99.90;;;;;;4896759;29;20798;-73
2023/08/20 06:36:19;;;;;;;0.60;0.10;;;;;;;;;;4896833;29;20469;-72
2023/08/20 06:38:47;;;;;;;0.97;0.50;;;24.50;99.90;;;;;;4897226;29;20820;-72
2023/08/20 06:41:15;;;;;;;0.70;0.20;;;;;;;;;;4896165;29;20468;-72
2023/08/20 06:43:43;;;;;;;2.50;1.60;;;24.50;99.90;;;;;;4889083;29;20453;-73
2023/08/20 06:46:11;;;;;;;0.70;0.10;;;;;;;;;;4877824;29;20474;-73
2023/08/20 06:48:40;;;;;;;1.20;0.27;;;;;;;;;;4878124;29;20481;-73
2023/08/20 06:51:15;;;;;;;0.70;0.20;;;24.60;99.90;;;;;;4877747;29;20473;-72
2023/08/20 06:53:44;;;;;;;0.70;0.20;;;24.60;99.90;;;;;;4894840;29;20445;-72
2023/08/20 06:56:12;;;;;;;0.70;0.20;;;24.50;99.90;;;;;;4915277;29;20564;-72
2023/08/20 06:58:41;;;;;;;0.60;0.10;;;24.50;99.90;;;;;;4916760;29;20462;-71
2023/08/20 07:01:11;;;;;;;1.60;1.50;;;24.50;99.90;;;;;;4907106;29;20456;-73
2023/08/20 07:03:41;;;;;;;1.17;0.73;;;24.50;99.90;;;;;;4905038;29;20836;-73
2023/08/20 07:06:10;;;;;;;0.70;0.30;;;24.60;99.90;;;;;;4902495;29;20476;-72
2023/08/20 07:08:39;;;;;;;0.60;0.10;;;24.60;99.90;;;;;;4900553;29;20512;-74
2023/08/20 07:11:09;;;;;;;0.70;0.10;;;24.70;99.90;;;;;;4900622;29;20528;-72
2023/08/20 07:13:37;;;;;;;0.63;0.17;;;24.60;99.90;;;;;;4900025;29;20528;-73
2023/08/20 07:16:05;;;;;;;0.60;0.20;;;24.60;99.90;;;;;;4899216;29;20488;-72
2023/08/20 07:18:33;;;;;;;0.70;0.20;;;24.70;99.90;;;;;;4900015;29;20825;-73
2023/08/20 07:21:01;;;;;;;0.70;0.10;;;24.60;99.90;;;;;;4900323;29;20859;-73
2023/08/20 07:23:29;;;;;;;0.90;0.60;;;;;;;;;;4898944;29;20552;-73
2023/08/20 07:26:06;;;;;;;0.60;0.20;;;24.60;99.90;;;;;;4902411;29;20502;-72
2023/08/20 07:31:21;;;;;;;0.60;0.10;;;24.60;99.90;;;;;;4919007;29;20539;-73
2023/08/20 07:33:49;;;;;;;0.60;0.10;;;24.70;99.90;;;;;;4918262;29;20454;-73
2023/08/20 07:36:18;;;;;;;0.70;0.10;;;24.80;99.90;;;;;;4918530;29;20492;-73
2023/08/20 07:38:46;;;;;;;1.13;1.03;;;24.80;99.90;;;;;;4919119;29;20444;-73
2023/08/20 07:41:14;;;;;;;0.70;0.20;;;;;;;;;;4904054;29;20541;-73
2023/08/20 07:43:44;;;;;;;0.70;0.30;;;24.80;99.90;;;;;;4891829;29;20536;-72
2023/08/20 07:46:12;;;;;;;3.63;2.23;;;24.80;99.90;;;;;;4880649;29;20476;-73
2023/08/20 07:48:40;;;;;;;0.67;0.17;;;24.80;99.90;;;;;;4880472;29;20458;-72
2023/08/20 07:51:09;;;;;;;1.77;1.30;;;24.80;99.90;;;;;;4892771;29;20947;-73
2023/08/20 07:53:37;;;;;;;0.70;0.20;;;;;;;;;;4898902;29;20467;-73
2023/08/20 07:56:05;;;;;;;1.23;1.13;;;24.70;99.90;;;;;;4898796;29;21056;-72
2023/08/20 07:58:33;;;;;;;0.70;0.37;;;24.80;99.90;;;;;;4899057;29;20552;-73
2023/08/20 08:01:02;;;;;;;0.70;0.40;;;24.80;99.90;;;;;;4899013;29;20453;-72
2023/08/20 08:03:30;;;;;;;0.70;0.10;;;23.10;99.90;;;;;;4899283;29;20450;-73
2023/08/20 08:05:58;;;;;;;0.70;0.10;;;24.80;99.90;;;;;;4898867;29;20473;-72
2023/08/20 08:08:26;;;;;;;2.10;1.90;;;24.90;99.90;;;;;;4898611;29;20903;-72
2023/08/20 08:10:54;;;;;;;0.70;0.20;;;24.90;99.90;;;;;;4899000;29;20540;-73
2023/08/20 08:13:23;;;;;;;1.07;0.80;;;24.90;99.90;;;;;;4897209;29;20461;-73
2023/08/20 08:15:51;;;;;;;0.70;0.13;;;24.90;99.90;;;;;;4903172;29;21012;-72
2023/08/20 08:18:21;;;;;;;0.70;0.20;;;24.90;99.90;;;;;;4896901;29;20453;-73
2023/08/20 08:20:49;;;;;;;0.70;0.20;;;;;;;;;;4896371;29;20450;-72
2023/08/20 08:23:17;;;;;;;0.70;0.20;;;25.00;99.90;;;;;;4893954;29;20459;-71
2023/08/20 08:25:45;;;;;;;0.70;0.10;;;;;;;;;;4899862;29;20548;-72
2023/08/20 08:28:13;;;;;;;1.00;0.57;;;25.10;99.90;;;;;;4892322;29;20485;-72
2023/08/20 08:30:41;;;;;;;0.70;0.10;;;;;;;;;;4899971;29;20496;-72
2023/08/20 08:33:09;;;;;;;0.90;0.30;;;;;;;;;;4899289;29;20452;-72
2023/08/20 08:35:39;;;;;;;0.70;0.30;;;25.20;99.90;;;;;;4894319;29;20485;-72
2023/08/20 08:38:07;;;;;;;0.70;0.17;;;;;;;;;;4892440;29;20476;-72
2023/08/20 08:40:35;;;;;;;0.70;0.10;;;25.20;99.90;;;;;;4901036;29;20469;-71
2023/08/20 08:43:03;;;;;;;0.70;0.10;;;;;;;;;;4902352;29;20538;-73
2023/08/20 08:45:32;;;;;;;0.70;0.20;;;;;;;;;;4879855;29;20481;-72
2023/08/20 08:48:03;;;;;;;0.70;0.10;;;25.20;99.90;;;;;;4879412;29;20450;-72
2023/08/20 08:50:32;;;;;;;2.03;1.33;;;25.30;99.90;;;;;;4892159;29;20468;-73
2023/08/20 08:53:02;;;;;;;0.80;0.40;;;25.30;99.90;;;;;;4888610;29;20466;-71
2023/08/20 08:55:30;;;;;;;0.70;0.10;;;25.30;99.90;;;;;;4898296;29;20517;-72
2023/08/20 08:57:58;;;;;;;0.70;0.10;;;;;;;;;;4898036;29;20453;-72
2023/08/20 09:00:27;;;;;;;1.00;0.77;;;;;;;;;;4898502;29;20942;-71
2023/08/20 09:02:55;;;;;;;0.70;0.10;;;;;;;;;;4898162;29;20982;-72
2023/08/20 09:05:23;;;;;;;1.43;1.20;;;25.50;99.90;;;;;;4897499;29;20780;-71
2023/08/20 09:07:56;;;;;;;0.70;0.10;;;25.50;99.90;;;;;;4897477;29;20544;-73
2023/08/20 09:10:28;;;;;;;0.97;0.70;;;25.50;99.90;;;;;;4897278;29;20545;-72
2023/08/20 09:12:57;;;;;;;0.70;0.10;;;25.50;99.90;;;;;;4897599;29;20525;-73
2023/08/20 09:15:35;;;;;;;0.97;0.63;;;25.60;99.90;;;;;;4892245;29;20504;-72
2023/08/20 09:18:04;;;;;;;0.70;0.10;;;25.70;99.90;;;;;;4891902;29;20854;-72
2023/08/20 09:20:36;;;;;;;0.70;0.30;;;25.80;99.90;;;;;;4896185;29;20964;-72
2023/08/20 09:23:04;;;;;;;1.03;0.83;;;;;;;;;;4897139;29;20541;-73
2023/08/20 09:25:33;;;;;;;0.70;0.20;;;25.80;99.90;;;;;;4892938;29;20473;-72
2023/08/20 09:28:04;;;;;;;0.80;0.63;;;25.90;99.90;;;;;;4896752;29;20473;-76
2023/08/20 09:30:32;;;;;;;4.57;3.40;;;26.00;99.90;;;;;;4895066;29;20526;-72
2023/08/20 09:33:05;;;;;;;0.70;0.20;;;26.10;99.90;;;;;;4890934;29;20445;-73
2023/08/20 09:35:33;;;;;;;0.70;0.20;;;26.20;99.90;;;;;;4887307;29;20510;-72
2023/08/20 09:38:02;;;;;;;0.70;0.10;;;26.30;99.90;;;;;;4896500;29;20453;-73
2023/08/20 09:40:31;;;;;;;0.70;0.10;;;26.40;99.90;;;;;;4895088;29;20478;-73
2023/08/20 09:43:02;;;;;;;0.70;0.10;;;26.40;99.90;;;;;;4892210;29;20536;-72
2023/08/20 09:45:30;;;;;;;0.70;0.10;;;23.60;99.90;;;;;;4895427;29;20914;-73
2023/08/20 09:48:00;;;;;;;0.70;0.10;;;26.60;99.90;;;;;;4895978;29;20457;-73
2023/08/20 09:50:29;;;;;;;0.70;0.10;;;;;;;;;;4888508;29;20486;-72
2023/08/20 09:53:02;;;;;;;0.70;0.17;;;26.80;99.90;;;;;;4898719;29;20465;-74
2023/08/20 09:55:37;;;;;;;0.70;0.20;;;26.80;99.90;;;;;;4889400;29;20489;-72
2023/08/20 09:58:07;;;;;;;0.70;0.20;;;;;;;;;;4895577;29;20461;-72
2023/08/20 10:00:38;;;;;;;0.70;0.10;;;27.00;99.90;;;;;;4895636;29;20823;-74
2023/08/20 10:03:07;;;;;;;0.90;0.63;;;27.00;99.90;;;;;;4890187;29;20452;-72
2023/08/20 10:05:35;;;;;;;0.70;0.20;;;;;;;;;;4893865;29;20483;-72
2023/08/20 10:08:03;;;;;;;0.70;0.20;;;;;;;;;;4908916;29;20968;-71
2023/08/20 10:10:32;;;;;;;0.70;0.13;;;27.20;99.90;;;;;;4898212;29;20482;-71
2023/08/20 10:13:00;;;;;;;0.70;0.13;;;27.30;99.90;;;;;;4899878;29;20480;-71
2023/08/20 10:15:31;;;;;;;0.70;0.13;;;27.40;99.90;;;;;;4906034;29;20585;-71
2023/08/20 10:18:01;;;;;;;1.13;1.03;;;27.40;99.90;;;;;;4910806;29;20853;-71
2023/08/20 10:20:30;;;;;;;0.80;0.77;;;27.50;99.90;;;;;;4906083;29;20570;-71
2023/08/20 10:23:03;;;;;;;0.70;0.30;;;27.50;99.90;;;;;;4902879;29;20447;-72
2023/08/20 10:25:31;;;;;;;0.70;0.20;;;;;;;;;;4895277;29;20558;-72
2023/08/20 10:28:14;;;;;;;0.70;0.20;;;27.60;99.90;;;;;;4895891;29;20917;-71
2023/08/20 10:31:06;;;;;;;0.70;0.10;;;27.60;99.90;;;;;;4888011;29;20453;-71
2023/08/20 10:33:35;;;;;;;0.70;0.10;;;27.70;99.90;;;;;;4893907;29;20451;-72
2023/08/20 10:36:15;;;;;;;1.30;1.20;;;27.80;99.90;;;;;;4893793;29;20520;-71
2023/08/20 10:38:46;;;;;;;0.70;0.17;;;27.80;99.90;;;;;;4896328;29;20458;-70
2023/08/20 10:41:16;;;;;;;0.70;0.10;;;27.90;99.90;;;;;;4901541;29;20536;-71
2023/08/20 10:43:48;;;;;;;0.70;0.10;;;27.90;99.90;;;;;;4894925;29;20460;-71
2023/08/20 10:46:18;;;;;;;0.70;0.20;;;28.00;99.90;;;;;;4894996;29;20554;-72
2023/08/20 10:48:49;;;;;;;0.70;0.10;;;28.10;99.90;;;;;;4895378;29;20972;-71
2023/08/20 10:51:18;;;;;;;1.30;1.13;;;28.10;99.90;;;;;;4895685;29;20488;-71
2023/08/20 10:54:03;;;;;;;0.70;0.10;;;28.20;99.90;;;;;;4898906;29;20475;-74
2023/08/20 10:56:42;;;;;;;0.70;0.20;;;28.20;99.90;;;;;;4914206;29;20483;-71
2023/08/20 10:59:14;;;;;;;0.70;0.10;;;28.30;99.90;;;;;;4914627;29;20455;-71
2023/08/20 11:01:46;;;;;;;0.70;0.20;;;28.30;99.90;;;;;;4904889;29;20514;-73
2023/08/20 11:04:15;;;;;;;1.00;0.20;;;;;;;;;;4894204;29;20445;-72
2023/08/20 11:06:44;;;;;;;0.80;0.30;;;28.40;99.90;;;;;;4893963;29;20499;-71
2023/08/20 11:09:12;;;;;;;0.70;0.10;;;28.50;99.90;;;;;;4883794;29;20454;-71
2023/08/20 11:11:43;;;;;;;0.70;0.20;;;28.60;99.90;;;;;;4890720;29;20482;-71
2023/08/20 11:14:15;;;;;;;1.37;0.40;;;28.70;99.90;;;;;;4902082;29;20516;-72
2023/08/20 11:16:46;;;;;;;0.70;0.20;;;28.80;99.90;;;;;;4899140;29;20490;-72
2023/08/20 11:19:14;;;;;;;0.70;0.20;;;28.80;99.90;;;;;;4899683;29;20468;-71
2023/08/20 11:21:43;;;;;;;0.70;0.10;;;28.80;99.90;;;;;;4900819;29;20468;-71
2023/08/20 11:24:12;;;;;;;3.17;0.47;;;28.90;99.90;;;;;;4901456;29;20475;-72
2023/08/20 11:26:42;;;;;;;0.70;0.20;;;28.90;99.90;;;;;;4904546;29;20470;-70
2023/08/20 11:29:12;;;;;;;0.70;0.20;;;29.00;99.90;;;;;;4910268;29;20546;-71
2023/08/20 11:31:40;;;;;;;1.00;0.60;;;29.00;99.90;;;;;;4910554;29;20555;-72
2023/08/20 11:34:10;;;;;;;0.70;0.20;;;29.00;95.20;;;;;;4902714;29;20457;-72
2023/08/20 11:36:40;;;;;;;0.70;0.10;;;29.00;93.80;;;;;;4895266;29;20511;-73
2023/08/20 11:39:08;;;;;;;0.70;0.20;;;29.00;95.10;;;;;;4895543;29;20520;-72
2023/08/20 11:41:37;;;;;;;0.70;0.20;;;29.10;96.90;;;;;;4877150;29;20485;-73
2023/08/20 11:44:06;;;;;;;0.70;0.20;;;29.10;97.90;;;;;;4888758;29;20457;-72
2023/08/20 11:46:34;;;;;;;0.70;0.10;;;29.20;98.80;;;;;;4898394;29;20811;-72
2023/08/20 11:49:04;;;;;;;0.70;0.20;;;29.30;98.00;;;;;;4898766;29;20456;-71
2023/08/20 11:51:37;;;;;;;0.70;0.20;;;29.40;95.90;;;;;;4898586;29;20973;-72
2023/08/20 11:54:06;;;;;;;1.00;0.17;;;29.50;94.30;;;;;;4898645;29;20453;-73
2023/08/20 11:56:34;;;;;;;0.70;0.10;;;29.50;94.10;;;;;;4903196;29;20466;-73
2023/08/20 11:59:03;;;;;;;0.90;0.43;;;29.60;90.50;;;;;;4895107;29;21026;-72
2023/08/20 12:01:31;;;;;;;1.27;1.17;;;29.50;80.90;;;;;;4899109;29;20548;-73
2023/08/20 12:04:04;;;;;;;0.70;0.20;;;29.60;78.80;;;;;;4901976;29;20469;-72
2023/08/20 12:06:35;;;;;;;0.70;0.17;;;29.60;76.50;;;;;;4905702;29;20468;-74
2023/08/20 12:09:19;;;;;;;0.70;0.20;;;29.60;79.60;;;;;;4915673;29;20448;-73
2023/08/20 12:11:50;;;;;;;0.70;0.17;;;29.70;84.40;;;;;;4907006;29;20465;-71
2023/08/20 12:14:18;;;;;;;1.00;0.20;;;29.80;87.50;;;;;;4905784;29;20517;-72
2023/08/20 12:16:46;;;;;;;0.70;0.20;;;29.90;90.70;;;;;;4904827;29;21016;-72
2023/08/20 12:19:14;;;;;;;0.70;0.10;;;30.00;90.90;;;;;;4901434;29;20587;-72
2023/08/20 12:21:44;;;;;;;0.70;0.10;;;30.10;91.70;;;;;;4902196;29;20471;-70
2023/08/20 12:24:13;;;;;;;1.33;0.20;;;30.10;90.80;;;;;;4906363;29;20555;-71
2023/08/20 12:26:41;;;;;;;0.70;0.10;;;30.10;85.60;;;;;;4916289;29;20511;-73
2023/08/20 12:29:09;;;;;;;0.80;0.27;;;30.10;81.70;;;;;;4903897;29;20465;-73
2023/08/20 12:31:37;;;;;;;0.70;0.20;;;29.90;85.10;;;;;;4901546;29;20453;-74
2023/08/20 12:34:05;;;;;;;0.80;0.30;;;30.10;84.30;;;;;;4905722;29;20545;-74
2023/08/20 12:36:33;;;;;;;0.70;0.10;;;30.10;81.60;;;;;;4897408;29;20833;-71
2023/08/20 12:39:04;;;;;;;0.70;0.40;;;29.90;78.50;;;;;;4895994;29;20513;-72
2023/08/20 12:41:32;;;;;;;17.00;11.30;;;30.10;70.00;;;;;;4905843;29;20456;-73
2023/08/20 12:44:00;;;;;;;0.70;0.20;;;30.10;67.00;;;;;;4898901;29;20842;-71
2023/08/20 12:46:28;;;;;;;0.70;0.20;;;30.10;65.90;;;;;;4897283;29;20464;-71
2023/08/20 12:48:56;;;;;;;0.70;0.13;;;30.10;62.90;;;;;;4895114;29;20460;-71
2023/08/20 12:51:24;;;;;;;0.70;0.20;;;30.10;50.40;;;;;;4902632;29;21169;-71
2023/08/20 12:53:52;;;;;;;0.70;0.10;;;30.20;52.90;;;;;;4903636;29;20475;-71
2023/08/20 12:56:21;;;;;;;0.70;0.20;;;30.30;53.40;;;;;;4894230;29;20580;-71
2023/08/20 12:58:50;;;;;;;0.70;0.20;;;30.40;51.30;;;;;;4903403;29;20488;-72
2023/08/20 13:01:19;;;;;;;0.70;0.20;;;30.30;43.20;;;;;;4897495;29;20485;-75
2023/08/20 13:03:48;;;;;;;0.70;0.20;;;30.50;41.20;;;;;;4894837;29;20545;-74
2023/08/20 13:06:17;;;;;;;0.70;0.20;;;30.50;33.20;;;;;;4896845;29;20568;-77
2023/08/20 13:08:45;;;;;;;0.70;0.20;;;30.50;34.50;;;;;;4902259;29;20556;-74
2023/08/20 13:11:17;;;;;;;0.80;0.20;;;30.50;41.20;;;;;;4903713;29;20551;-72
2023/08/20 13:13:47;;;;;;;0.70;0.20;;;30.60;39.00;;;;;;4903216;29;20461;-74
2023/08/20 13:16:16;;;;;;;0.70;0.20;;;30.60;31.90;;;;;;4892046;29;20492;-74
2023/08/20 13:18:44;;;;;;;0.70;0.10;;;30.60;31.00;;;;;;4896877;29;20513;-75
2023/08/20 13:21:12;;;;;;;0.70;0.20;;;30.60;30.50;;;;;;4896089;29;20479;-74
2023/08/20 13:23:40;;;;;;;0.70;0.10;;;30.60;32.60;;;;;;4909538;29;20540;-75
2023/08/20 13:26:08;;;;;;;0.70;0.30;;;30.60;32.40;;;;;;4911216;29;20631;-74
2023/08/20 13:28:37;;;;;;;0.70;0.20;;;30.60;35.40;;;;;;4916374;29;20456;-74
2023/08/20 13:31:07;;;;;;;0.80;0.50;;;30.70;36.30;;;;;;4915120;29;20464;-74
2023/08/20 13:33:34;;;;;;;0.70;0.20;;;30.70;36.00;;;;;;4888678;29;20493;-75
2023/08/20 13:36:03;;;;;;;0.70;0.20;;;30.80;35.00;;;;;;4896414;29;20504;-74
2023/08/20 13:38:32;;;;;;;0.70;0.20;;;30.80;36.90;;;;;;4896138;29;20497;-75
2023/08/20 13:41:00;;;;;;;3.60;1.30;;;30.90;35.60;;;;;;4891335;29;20454;-74
2023/08/20 13:43:28;;;;;;;0.70;0.20;;;30.90;33.10;;;;;;4894906;29;20950;-74
2023/08/20 13:45:56;;;;;;;0.70;0.20;;;30.90;34.90;;;;;;4889613;29;20549;-74
2023/08/20 13:48:25;;;;;;;0.70;0.20;;;30.90;33.40;;;;;;4897898;29;20815;-73
2023/08/20 13:50:53;;;;;;;0.70;0.10;;;30.90;33.40;;;;;;4898318;29;20479;-73
2023/08/20 13:53:21;;;;;;;0.70;0.20;;;30.90;34.30;;;;;;4891443;29;20469;-75
2023/08/20 13:55:49;;;;;;;1.17;0.67;;;30.90;34.50;;;;;;4901703;29;21061;-74
2023/08/20 13:58:17;;;;;;;0.70;0.20;;;30.90;33.10;;;;;;4903347;29;20488;-72
2023/08/20 14:00:45;;;;;;;0.80;0.30;;;31.00;34.50;;;;;;4896703;29;20534;-72
2023/08/20 14:03:13;;;;;;;0.70;0.30;;;31.00;36.20;;;;;;4895870;29;20489;-72
2023/08/20 14:05:44;;;;;;;1.03;0.93;;;31.00;36.00;;;;;;4894514;29;20556;-73
2023/08/20 14:08:12;;;;;;;0.70;0.20;;;31.00;39.10;;;;;;4893095;29;20544;-72
2023/08/20 14:10:40;;;;;;;1.47;0.47;;;31.10;36.60;;;;;;4899435;29;20856;-71
2023/08/20 14:13:08;;;;;;;0.70;0.20;;;31.10;35.90;;;;;;4892633;29;20549;-72
2023/08/20 14:15:36;;;;;;;0.80;0.30;;;31.10;35.00;;;;;;4896690;29;20861;-72
2023/08/20 14:18:05;;;;;;;0.70;0.20;;;31.20;36.50;;;;;;4891065;29;20496;-73
2023/08/20 14:20:38;;;;;;;0.77;0.40;;;31.20;35.40;;;;;;4900741;29;20469;-73
2023/08/20 14:23:07;;;;;;;0.70;0.10;;;31.20;33.90;;;;;;4900204;29;20877;-73
2023/08/20 14:25:35;;;;;;;0.70;0.20;;;31.20;34.50;;;;;;4898405;29;20505;-73
2023/08/20 14:28:03;;;;;;;0.77;0.57;;;31.40;38.00;;;;;;4905445;29;20505;-73
2023/08/20 14:30:30;;;;;;;0.70;0.20;;;31.50;37.10;;;;;;4909578;29;20453;-73
2023/08/20 14:32:58;;;;;;;0.70;0.10;;;31.50;34.70;;;;;;4896724;29;20456;-72
2023/08/20 14:35:25;;;;;;;0.70;0.20;;;31.60;33.90;;;;;;4897165;29;20473;-72
2023/08/20 14:37:54;;;;;;;0.70;0.10;;;;;;;;;;4895990;29;20493;-71
2023/08/20 14:40:24;;;;;;;0.70;0.17;;;31.70;30.90;;;;;;4898379;29;20485;-72
2023/08/20 14:42:52;;;;;;;0.70;0.17;;;31.70;28.20;;;;;;4896438;29;20461;-73
2023/08/20 14:45:20;;;;;;;0.70;0.20;;;31.70;28.10;;;;;;4896325;29;20484;-72
2023/08/20 14:47:48;;;;;;;0.70;0.20;;;31.70;26.60;;;;;;4892960;29;20532;-73
2023/08/20 14:50:15;;;;;;;0.80;0.30;;;31.80;29.60;;;;;;4909479;29;20490;-73
2023/08/20 14:52:43;;;;;;;0.70;0.20;;;31.90;36.50;;;;;;4901875;29;20468;-75
2023/08/20 14:55:12;;;;;;;0.70;0.20;;;;;;;;;;4895579;29;20489;-73
2023/08/20 14:57:41;;;;;;;0.70;0.20;;;32.00;36.20;;;;;;4904676;29;20479;-76
2023/08/20 15:00:22;;;;;;;0.70;0.30;;;32.10;47.20;;;;;;4901913;29;20961;-72
2023/08/20 15:02:50;;;;;;;0.70;0.20;;;32.10;37.70;;;;;;4905818;29;20485;-74
2023/08/20 15:05:19;;;;;;;0.70;0.20;;;32.20;36.30;;;;;;4916250;29;20531;-74
2023/08/20 15:07:46;;;;;;;0.80;0.67;;;32.20;31.80;;;;;;4883790;29;20545;-73
2023/08/20 15:10:14;;;;;;;0.70;0.20;;;30.60;35.00;;;;;;4885101;29;20468;-75
2023/08/20 15:12:43;;;;;;;0.70;0.20;;;32.10;34.80;;;;;;4915681;29;20489;-75
2023/08/20 15:15:11;;;;;;;0.70;0.20;;;32.00;37.00;;;;;;4902899;29;20523;-76
2023/08/20 15:17:40;;;;;;;0.80;0.50;;;32.10;39.50;;;;;;4898027;29;20449;-75
2023/08/20 15:20:10;;;;;;;0.97;0.50;;;32.20;35.30;;;;;;4899206;29;20569;-76
2023/08/20 15:22:39;;;;;;;0.70;0.27;;;32.20;34.10;;;;;;4900037;29;20468;-75
2023/08/20 15:25:09;;;;;;;1.27;0.57;;;32.20;39.40;;;;;;4909900;29;20483;-76
2023/08/20 15:27:38;;;;;;;0.70;0.10;;;32.30;41.90;;;;;;4917837;29;20499;-75
2023/08/20 15:30:09;;;;;;;0.70;0.20;;;32.40;39.10;;;;;;4911480;29;20462;-75
2023/08/20 15:32:37;;;;;;;0.90;0.30;;;32.50;43.00;;;;;;4892125;29;20492;-75
2023/08/20 15:35:07;;;;;;;0.70;0.20;;;32.60;39.10;;;;;;4898266;29;20927;-75
2023/08/20 15:37:34;;;;;;;0.70;0.20;;;32.60;38.50;;;;;;4892476;29;20446;-74
2023/08/20 15:40:08;;;;;;;0.70;0.20;;;32.70;39.10;;;;;;4887672;29;20552;-74
2023/08/20 15:42:36;;;;;;;0.70;0.20;;;32.70;39.80;;;;;;4891969;29;20544;-73
2023/08/20 15:45:05;;;;;;;0.70;0.20;;;32.80;38.30;;;;;;4898398;29;20532;-75
2023/08/20 15:47:34;;;;;;;6.37;1.67;;;31.50;36.20;;;;;;4902887;29;20477;-75
2023/08/20 15:50:02;;;;;;;0.70;0.20;;;32.90;36.80;;;;;;4896633;29;20460;-74
2023/08/20 15:52:30;;;;;;;0.70;0.20;;;33.00;38.30;;;;;;4899201;29;20468;-75
2023/08/20 15:54:59;;;;;;;0.70;0.30;;;33.10;39.60;;;;;;4907433;29;20868;-78
2023/08/20 15:57:28;;;;;;;0.70;0.20;;;33.10;38.40;;;;;;4898401;29;20461;-76
2023/08/20 15:59:56;;;;;;;0.70;0.20;;;33.20;34.00;;;;;;4897020;29;20497;-76
2023/08/20 16:02:24;;;;;;;0.70;0.30;;;;;;;;;;4899685;29;20452;-75
2023/08/20 16:04:54;;;;;;;0.70;0.20;;;33.40;41.90;;;;;;4890113;29;20496;-74
2023/08/20 16:07:23;;;;;;;0.70;0.20;;;;;;;;;;4895776;29;20552;-74
2023/08/20 16:09:50;;;;;;;0.70;0.20;;;33.70;46.10;;;;;;4898253;29;20442;-75
2023/08/20 16:12:19;;;;;;;0.70;0.20;;;33.80;40.40;;;;;;4899185;29;20521;-75
2023/08/20 16:14:47;;;;;;;0.70;0.20;;;33.90;51.60;;;;;;4898574;29;20481;-75
2023/08/20 16:17:15;;;;;;;0.70;0.20;;;34.10;45.40;;;;;;4892773;29;20469;-72
2023/08/20 16:19:43;;;;;;;0.70;0.10;;;34.20;32.60;;;;;;4901461;29;20487;-76
2023/08/20 16:22:13;;;;;;;7.80;1.90;;;;;;;;;;4901740;29;20469;-77
2023/08/20 16:24:41;;;;;;;0.70;0.20;;;34.20;29.70;;;;;;4897218;29;20906;-71
2023/08/20 16:27:09;;;;;;;0.70;0.20;;;34.10;31.00;;;;;;4897153;29;20574;-72
2023/08/20 16:29:37;;;;;;;0.70;0.20;;;34.00;36.30;;;;;;4897301;29;20445;-75
2023/08/20 16:32:05;;;;;;;0.70;0.20;;;34.10;29.50;;;;;;4901544;29;20571;-75
2023/08/20 16:34:34;;;;;;;0.70;0.20;;;34.00;31.50;;;;;;4905770;29;20476;-75
2023/08/20 16:37:02;;;;;;;0.70;0.20;;;34.00;42.90;;;;;;4900873;29;20531;-76
2023/08/20 16:39:32;;;;;;;0.80;0.30;;;;;;;;;;4895949;29;20457;-74
2023/08/20 16:42:02;;;;;;;0.70;0.30;;;34.10;28.80;;;;;;4893518;29;20507;-73
2023/08/20 16:44:30;;;;;;;0.70;0.20;;;34.20;34.40;;;;;;4912078;29;20524;-75
2023/08/20 16:46:58;;;;;;;0.70;0.20;;;34.30;34.10;;;;;;4897837;29;20453;-75
2023/08/20 16:49:26;;;;;;;1.17;1.03;;;34.20;24.90;;;;;;4897687;29;20465;-73
2023/08/20 16:51:54;;;;;;;0.70;0.20;;;34.00;27.20;;;;;;4898285;29;20464;-73
2023/08/20 16:54:22;;;;;;;0.70;0.20;;;34.10;29.70;;;;;;4909392;29;20511;-73
2023/08/20 16:56:52;;;;;;;0.70;0.20;;;34.10;31.10;;;;;;4909526;29;20449;-72
2023/08/20 16:59:22;;;;;;;0.70;0.20;;;34.10;25.40;;;;;;4900631;29;20480;-72
2023/08/20 17:01:51;;;;;;;0.70;0.10;;;34.10;26.80;;;;;;4893066;29;20489;-75
2023/08/20 17:04:19;;;;;;;1.00;0.20;;;34.10;30.90;;;;;;4892212;29;20469;-73
2023/08/20 17:06:49;;;;;;;0.70;0.20;;;35.20;25.80;;;;;;4898790;29;20461;-75
2023/08/20 17:09:18;;;;;;;0.70;0.20;;;34.10;27.60;;;;;;4904579;29;20886;-70
2023/08/20 17:11:46;;;;;;;0.70;0.20;;;34.10;29.50;;;;;;4878533;29;20450;-70
2023/08/20 17:14:16;;;;;;;1.00;0.20;;;34.10;27.70;;;;;;4886005;29;20536;-74
2023/08/20 17:16:45;;;;;;;0.70;0.20;;;34.00;24.00;;;;;;4897055;29;20465;-70